Time;durP1;ratioP1;P1;durP2;ratioP2;P2;SDS_P1;SDS_P2;PMS_P1;PMS_P2;Temp;Humidity;BMP_temperature;BMP_pressure;BME280_temperature;BME280_humidity;BME280_pressure;Samples;Min_cycle;Max_cycle;Signal;HPM_P1;HPM_P2
2023/05/20 00:00:13;;;;;;;7.23;2.50;;;;;;;;;;5012794;28;20197;-85
2023/05/20 00:02:43;;;;;;;1.17;1.10;;;;;;;;;;5012268;28;20203;-85
2023/05/20 00:05:12;;;;;;;1.10;1.10;;;;;;;;;;5012415;28;20204;-86
2023/05/20 00:07:40;;;;;;;0.73;0.73;;;;;;;;;;5012141;28;20192;-85
2023/05/20 00:10:09;;;;;;;3.03;2.40;;;;;;;;;;5012603;28;20219;-85
2023/05/20 00:12:38;;;;;;;3.80;1.97;;;;;;;;;;5012347;28;20212;-85
2023/05/20 00:15:08;;;;;;;1.33;1.33;;;;;;;;;;5012520;28;20202;-86
2023/05/20 00:17:36;;;;;;;1.87;1.77;;;;;;;;;;5012466;28;20203;-86
2023/05/20 00:20:07;;;;;;;3.10;1.67;;;;;;;;;;5010962;28;20200;-85
2023/05/20 00:22:35;;;;;;;1.67;1.57;;;;;;;;;;5012199;28;20238;-86
2023/05/20 00:25:04;;;;;;;0.73;0.73;;;;;;;;;;5012653;28;20220;-86
2023/05/20 00:27:32;;;;;;;1.40;1.27;;;;;;;;;;5012409;28;20252;-86
2023/05/20 00:30:00;;;;;;;0.90;0.90;;;;;;;;;;5012299;28;20207;-86
2023/05/20 00:32:29;;;;;;;1.03;1.03;;;;;;;;;;5012851;28;20239;-86
2023/05/20 00:34:58;;;;;;;0.80;0.80;;;;;;;;;;5012565;28;20192;-86
2023/05/20 00:37:28;;;;;;;1.33;1.23;;;;;;;;;;5012233;28;20199;-86
2023/05/20 00:39:56;;;;;;;2.97;2.20;;;;;;;;;;5012502;28;20210;-86
2023/05/20 00:42:25;;;;;;;2.93;1.80;;;;;;;;;;5012475;28;20200;-86
2023/05/20 00:44:54;;;;;;;2.27;2.07;;;;;;;;;;5012161;28;20227;-86
2023/05/20 00:47:25;;;;;;;2.67;1.90;;;;;;;;;;5012342;28;20203;-85
2023/05/20 00:49:54;;;;;;;3.80;1.30;;;;;;;;;;5012260;28;20207;-86
2023/05/20 00:52:23;;;;;;;3.30;2.43;;;;;;;;;;5012306;28;20200;-86
2023/05/20 00:54:53;;;;;;;3.67;2.67;;;;;;;;;;5012590;28;20196;-85
2023/05/20 00:57:21;;;;;;;2.53;2.37;;;;;;;;;;5012433;28;20196;-86
2023/05/20 00:59:50;;;;;;;2.13;2.03;;;;;;;;;;5012707;28;20217;-86
2023/05/20 01:02:20;;;;;;;0.83;0.83;;;;;;;;;;5011544;28;20210;-86
2023/05/20 01:04:48;;;;;;;4.53;3.53;;;;;;;;;;5012252;28;20220;-86
2023/05/20 01:07:17;;;;;;;2.47;2.03;;;;;;;;;;5011681;28;20200;-86
2023/05/20 01:09:46;;;;;;;2.07;1.73;;;;;;;;;;5011687;28;20217;-85
2023/05/20 01:12:18;;;;;;;2.73;2.53;;;;;;;;;;5012172;28;20222;-86
2023/05/20 01:14:49;;;;;;;2.20;2.07;;;;;;;;;;5012080;28;20193;-86
2023/05/20 01:17:19;;;;;;;4.30;2.47;;;;;;;;;;5011715;28;20204;-86
2023/05/20 01:19:48;;;;;;;4.50;1.43;;;;;;;;;;5012278;28;20196;-86
2023/05/20 01:22:17;;;;;;;8.00;3.07;;;;;;;;;;5010017;28;20263;-86
2023/05/20 01:24:48;;;;;;;1.20;1.20;;;;;;;;;;5011915;28;20227;-86
2023/05/20 01:27:19;;;;;;;4.37;2.80;;;;;;;;;;5012088;28;20224;-86
2023/05/20 01:29:51;;;;;;;4.53;4.10;;;;;;;;;;5012529;28;20203;-86
2023/05/20 01:32:21;;;;;;;7.03;2.53;;;;;;;;;;5012392;28;20207;-86
2023/05/20 01:34:50;;;;;;;2.20;2.00;;;;;;;;;;5013790;28;20208;-86
2023/05/20 01:37:19;;;;;;;2.30;2.00;;;;;;;;;;5015570;28;20243;-86
2023/05/20 01:39:50;;;;;;;1.77;1.77;;;;;;;;;;5015929;28;20208;-86
2023/05/20 01:42:19;;;;;;;3.13;2.93;;;;;;;;;;5015312;28;20199;-86
2023/05/20 01:44:48;;;;;;;2.50;1.83;;;;;;;;;;5015942;28;20219;-86
2023/05/20 01:47:16;;;;;;;2.77;2.37;;;;;;;;;;5015566;28;20212;-85
2023/05/20 01:49:46;;;;;;;5.17;1.47;;;;;;;;;;5015558;28;20218;-86
2023/05/20 01:52:17;;;;;;;2.87;2.60;;;;;;;;;;5015054;28;20203;-85
2023/05/20 01:54:49;;;;;;;1.67;1.53;;;;;;;;;;5015435;28;20208;-85
2023/05/20 01:57:20;;;;;;;6.90;2.63;;;;;;;;;;5014702;28;20201;-85
2023/05/20 01:59:51;;;;;;;1.67;1.57;;;;;;;;;;5015231;28;20196;-86
2023/05/20 02:02:19;;;;;;;3.53;3.23;;;;;;;;;;5014892;28;20199;-86
2023/05/20 02:04:51;;;;;;;2.23;2.03;;;;;;;;;;5015425;28;20217;-86
2023/05/20 02:07:20;;;;;;;3.37;3.07;;;;;;;;;;5015040;28;20231;-85
2023/05/20 02:09:48;;;;;;;1.77;1.63;;;;;;;;;;5014887;28;20214;-86
2023/05/20 02:12:17;;;;;;;2.47;1.67;;;;;;;;;;5015288;28;20204;-86
2023/05/20 02:14:49;;;;;;;3.37;2.17;;;;;;;;;;5014907;28;20200;-85
2023/05/20 02:17:17;;;;;;;3.60;3.37;;;;;;;;;;5014744;28;20192;-86
2023/05/20 02:19:46;;;;;;;6.73;4.67;;;;;;;;;;5014590;28;20218;-85
2023/05/20 02:22:15;;;;;;;2.20;2.07;;;;;;;;;;5013929;28;20227;-86
2023/05/20 02:24:43;;;;;;;2.17;2.07;;;;;;;;;;5014368;28;20211;-85
2023/05/20 02:27:13;;;;;;;7.20;2.50;;;;;;;;;;5014760;28;20223;-85
2023/05/20 02:29:43;;;;;;;5.27;2.43;;;;;;;;;;5014336;28;20207;-85
2023/05/20 02:32:13;;;;;;;1.20;1.10;;;;;;;;;;5014803;28;20210;-85
2023/05/20 02:34:42;;;;;;;5.30;3.00;;;;;;;;;;5014430;28;20200;-86
2023/05/20 02:37:10;;;;;;;5.00;3.60;;;;;;;;;;5014306;28;20240;-85
2023/05/20 02:39:39;;;;;;;3.27;1.87;;;;;;;;;;5014146;28;20196;-85
2023/05/20 02:42:07;;;;;;;1.87;1.77;;;;;;;;;;5014467;28;20203;-85
2023/05/20 02:44:36;;;;;;;8.13;3.57;;;;;;;;;;5013900;28;20223;-85
2023/05/20 02:47:05;;;;;;;4.80;2.47;;;;;;;;;;5013710;28;20238;-85
2023/05/20 02:49:34;;;;;;;2.30;2.20;;;;;;;;;;5013938;28;20198;-85
2023/05/20 02:52:03;;;;;;;3.17;2.87;;;;;;;;;;5014392;28;20231;-86
2023/05/20 02:54:31;;;;;;;2.13;2.03;;;;;;;;;;5014280;28;20200;-86
2023/05/20 02:57:01;;;;;;;2.43;2.23;;;;;;;;;;5014329;28;20207;-85
2023/05/20 02:59:29;;;;;;;4.17;2.40;;;;;;;;;;5014118;28;20200;-86
2023/05/20 03:01:58;;;;;;;2.67;2.40;;;;;;;;;;5013810;28;20200;-86
2023/05/20 03:04:26;;;;;;;0.90;0.90;;;;;;;;;;5013653;28;20192;-85
2023/05/20 03:06:56;;;;;;;4.50;2.90;;;;;;;;;;5014284;28;20206;-86
2023/05/20 03:09:25;;;;;;;2.67;2.47;;;;;;;;;;5014080;28;20203;-85
2023/05/20 03:11:54;;;;;;;5.00;2.23;;;;;;;;;;5013666;28;20200;-85
2023/05/20 03:14:22;;;;;;;3.70;2.70;;;;;;;;;;5014052;28;20203;-85
2023/05/20 03:16:51;;;;;;;4.83;2.60;;;;;;;;;;5013270;28;20223;-86
2023/05/20 03:19:19;;;;;;;1.63;1.57;;;;;;;;;;5013530;28;20243;-86
2023/05/20 03:21:51;;;;;;;7.43;3.43;;;;;;;;;;5012923;28;20228;-86
2023/05/20 03:24:22;;;;;;;1.60;1.50;;;;;;;;;;5013203;28;20212;-86
2023/05/20 03:26:50;;;;;;;1.27;1.17;;;;;;;;;;5013060;28;20258;-86
2023/05/20 03:29:19;;;;;;;2.07;1.93;;;;;;;;;;5013166;28;20204;-86
2023/05/20 03:31:50;;;;;;;2.87;2.57;;;;;;;;;;5013460;28;20223;-86
2023/05/20 03:34:19;;;;;;;2.33;1.97;;;;;;;;;;5013730;28;20200;-86
2023/05/20 03:36:47;;;;;;;3.63;2.90;;;;;;;;;;5013169;28;20199;-86
2023/05/20 03:39:16;;;;;;;1.13;1.13;;;;;;;;;;5013381;28;20211;-86
2023/05/20 03:41:45;;;;;;;1.87;1.73;;;;;;;;;;5013249;28;20204;-86
2023/05/20 03:44:14;;;;;;;2.13;1.93;;;;;;;;;;5012995;28;20215;-86
2023/05/20 03:46:43;;;;;;;8.60;1.67;;;;;;;;;;5013538;28;20224;-85
2023/05/20 03:49:11;;;;;;;1.10;1.10;;;;;;;;;;5013007;28;20207;-86
2023/05/20 03:51:39;;;;;;;1.83;1.73;;;;;;;;;;5012869;28;20199;-86
2023/05/20 03:54:08;;;;;;;2.17;2.07;;;;;;;;;;5013357;28;20204;-86
2023/05/20 03:56:36;;;;;;;3.70;2.97;;;;;;;;;;5013263;28;20195;-86
2023/05/20 03:59:06;;;;;;;3.27;1.77;;;;;;;;;;5012332;28;20207;-85
2023/05/20 04:01:36;;;;;;;2.90;1.90;;;;;;;;;;5012990;28;20211;-86
2023/05/20 04:04:04;;;;;;;1.87;1.77;;;;;;;;;;5013372;28;20335;-85
2023/05/20 04:06:33;;;;;;;2.47;2.27;;;;;;;;;;5012926;28;20285;-86
2023/05/20 04:09:01;;;;;;;3.10;2.80;;;;;;;;;;5013158;28;20207;-85
2023/05/20 04:11:30;;;;;;;2.13;2.03;;;;;;;;;;5012936;28;20203;-85
2023/05/20 04:13:59;;;;;;;1.70;1.60;;;;;;;;;;5012855;28;20207;-86
2023/05/20 04:16:29;;;;;;;5.70;2.23;;;;;;;;;;5013074;28;20204;-85
2023/05/20 04:18:59;;;;;;;4.83;2.30;;;;;;;;;;5012630;28;20204;-86
2023/05/20 04:21:30;;;;;;;3.23;2.93;;;;;;;;;;5010440;28;20261;-85
2023/05/20 04:23:58;;;;;;;2.73;2.53;;;;;;;;;;5012215;28;20207;-86
2023/05/20 04:26:27;;;;;;;3.40;3.07;;;;;;;;;;5012685;28;20216;-86
2023/05/20 04:28:57;;;;;;;2.77;2.57;;;;;;;;;;5012373;28;20208;-86
2023/05/20 04:31:26;;;;;;;2.03;1.87;;;;;;;;;;5012352;28;20223;-86
2023/05/20 04:33:56;;;;;;;3.20;2.30;;;;;;;;;;5012196;28;20219;-86
2023/05/20 04:36:27;;;;;;;2.33;2.17;;;;;;;;;;5012824;28;20230;-86
2023/05/20 04:38:56;;;;;;;3.00;2.50;;;;;;;;;;5012407;28;20239;-85
2023/05/20 04:41:26;;;;;;;2.47;2.17;;;;;;;;;;5012330;28;20192;-86
2023/05/20 04:43:58;;;;;;;2.03;1.93;;;;;;;;;;5012243;28;20227;-85
2023/05/20 04:46:27;;;;;;;2.70;2.47;;;;;;;;;;5012508;28;20315;-85
2023/05/20 04:48:57;;;;;;;14.67;2.53;;;;;;;;;;5012234;28;20208;-86
2023/05/20 04:51:26;;;;;;;1.93;1.73;;;;;;;;;;5012000;28;20239;-86
2023/05/20 04:53:54;;;;;;;3.13;2.70;;;;;;;;;;5012766;28;20204;-85
2023/05/20 04:56:23;;;;;;;2.77;2.10;;;;;;;;;;5011926;28;20203;-85
2023/05/20 04:58:51;;;;;;;3.57;2.73;;;;;;;;;;5012355;28;20209;-85
2023/05/20 05:01:20;;;;;;;0.93;0.93;;;;;;;;;;5011998;28;20201;-86
2023/05/20 05:03:48;;;;;;;2.77;2.53;;;;;;;;;;5011979;28;20208;-85
2023/05/20 05:06:18;;;;;;;1.87;1.77;;;;;;;;;;5012088;28;20224;-85
2023/05/20 05:08:46;;;;;;;2.77;2.47;;;;;;;;;;5012390;28;20294;-86
2023/05/20 05:11:15;;;;;;;4.00;2.43;;;;;;;;;;5015907;28;20206;-86
2023/05/20 05:13:43;;;;;;;1.73;1.60;;;;;;;;;;5016189;28;20242;-86
2023/05/20 05:16:12;;;;;;;3.57;1.93;;;;;;;;;;5015783;28;20192;-86
2023/05/20 05:18:41;;;;;;;6.47;2.90;;;;;;;;;;5016055;28;20199;-86
2023/05/20 05:21:09;;;;;;;2.10;1.60;;;;;;;;;;5015283;28;20273;-86
2023/05/20 05:23:41;;;;;;;2.50;2.30;;;;;;;;;;5015499;28;20201;-86
2023/05/20 05:26:09;;;;;;;4.23;1.90;;;;;;;;;;5015973;28;20216;-86
2023/05/20 05:28:38;;;;;;;3.80;3.60;;;;;;;;;;5015161;28;20228;-86
2023/05/20 05:31:07;;;;;;;1.40;1.40;;;;;;;;;;5015822;28;20254;-85
2023/05/20 05:33:35;;;;;;;6.33;2.87;;;;;;;;;;5015599;28;20192;-86
2023/05/20 05:36:05;;;;;;;3.10;2.80;;;;;;;;;;5015614;28;20220;-86
2023/05/20 05:38:33;;;;;;;7.73;2.83;;;;;;;;;;5015697;28;20295;-85
2023/05/20 05:41:03;;;;;;;2.07;1.67;;;;;;;;;;5015926;28;20205;-86
2023/05/20 05:43:32;;;;;;;4.27;3.53;;;;;;;;;;5015701;28;20204;-86
2023/05/20 05:46:01;;;;;;;5.73;4.13;;;;;;;;;;5015150;28;20227;-86
2023/05/20 05:48:29;;;;;;;5.50;3.70;;;;;;;;;;5015747;28;20202;-86
2023/05/20 05:50:58;;;;;;;1.77;1.67;;;;;;;;;;5015418;28;20209;-86
2023/05/20 05:53:26;;;;;;;6.63;3.63;;;;;;;;;;5015426;28;20232;-86
2023/05/20 05:55:55;;;;;;;5.77;3.10;;;;;;;;;;5016058;28;20204;-86
2023/05/20 05:58:25;;;;;;;3.73;3.17;;;;;;;;;;5015388;28;20231;-86
2023/05/20 06:00:53;;;;;;;4.70;3.53;;;;;;;;;;5014755;28;20205;-87
2023/05/20 06:03:22;;;;;;;7.23;2.03;;;;;;;;;;5015379;28;20209;-86
2023/05/20 06:05:51;;;;;;;3.87;2.47;;;;;;;;;;5015151;28;20227;-85
2023/05/20 06:08:19;;;;;;;3.97;3.07;;;;;;;;;;5014670;28;20204;-85
2023/05/20 06:10:49;;;;;;;4.67;2.73;;;;;;;;;;5015426;28;20201;-85
2023/05/20 06:13:18;;;;;;;6.90;3.20;;;;;;;;;;5015363;28;20210;-86
2023/05/20 06:15:49;;;;;;;4.63;3.13;;;;;;;;;;5014710;28;20205;-86
2023/05/20 06:18:18;;;;;;;3.57;3.27;;;;;;;;;;5014654;28;20208;-86
2023/05/20 06:20:46;;;;;;;3.80;2.87;;;;;;;;;;5013741;28;20208;-85
2023/05/20 06:23:15;;;;;;;3.17;2.63;;;;;;;;;;5014852;28;20265;-86
2023/05/20 06:25:43;;;;;;;2.43;2.23;;;;;;;;;;5014174;28;20204;-86
2023/05/20 06:28:12;;;;;;;2.23;2.13;;;;;;;;;;5014214;28;20237;-86
2023/05/20 06:30:41;;;;;;;3.73;2.33;;;;;;;;;;5014573;28;20217;-85
2023/05/20 06:33:13;;;;;;;2.30;2.03;;;;;;;;;;5014784;28;20210;-86
2023/05/20 06:35:42;;;;;;;2.73;2.17;;;;;;;;;;5014898;28;20209;-86
2023/05/20 06:38:11;;;;;;;3.43;2.90;;;;;;;;;;5014882;28;20205;-86
2023/05/20 06:40:40;;;;;;;5.23;2.53;;;;;;;;;;5014100;28;20212;-86
2023/05/20 06:43:08;;;;;;;5.77;3.37;;;;;;;;;;5014285;28;20205;-86
2023/05/20 06:45:36;;;;;;;4.90;3.17;;;;;;;;;;5014283;28;20206;-85
2023/05/20 06:48:05;;;;;;;2.57;2.17;;;;;;;;;;5014074;28;20250;-86
2023/05/20 06:50:36;;;;;;;6.37;3.23;;;;;;;;;;4997064;28;20202;-86
2023/05/20 06:53:04;;;;;;;3.63;3.10;;;;;;;;;;5014130;28;20230;-86
2023/05/20 06:55:33;;;;;;;4.40;3.67;;;;;;;;;;5014596;28;20214;-86
2023/05/20 06:58:01;;;;;;;3.17;2.63;;;;;;;;;;5013804;28;20210;-86
2023/05/20 07:00:30;;;;;;;3.50;2.90;;;;;;;;;;5013988;28;20209;-86
2023/05/20 07:02:59;;;;;;;3.80;2.43;;;;;;;;;;5014242;28;20199;-85
2023/05/20 07:05:27;;;;;;;2.67;2.20;;;;;;;;;;5013498;28;20264;-86
2023/05/20 07:07:57;;;;;;;1.97;1.87;;;;;;;;;;5014092;28;20229;-86
2023/05/20 07:10:26;;;;;;;3.63;2.53;;;;;;;;;;5014238;28;20209;-86
2023/05/20 07:12:54;;;;;;;7.27;3.30;;;;;;;;;;5013778;28;20202;-86
2023/05/20 07:15:23;;;;;;;2.70;2.37;;;;;;;;;;5013774;28;20210;-86
2023/05/20 07:17:52;;;;;;;2.27;2.07;;;;;;;;;;5013512;28;20199;-86
2023/05/20 07:20:20;;;;;;;6.60;2.87;;;;;;;;;;5013641;28;20213;-86
2023/05/20 07:22:49;;;;;;;8.67;3.93;;;;;;;;;;5013354;28;20229;-86
2023/05/20 07:25:19;;;;;;;2.80;2.53;;;;;;;;;;5013721;28;20210;-86
2023/05/20 07:27:47;;;;;;;2.47;2.27;;;;;;;;;;5013338;28;20230;-86
2023/05/20 07:30:16;;;;;;;3.70;2.90;;;;;;;;;;5013147;28;20199;-86
2023/05/20 07:32:44;;;;;;;2.87;1.90;;;;;;;;;;5013142;28;20229;-86
2023/05/20 07:35:13;;;;;;;1.83;1.73;;;;;;;;;;5013138;28;20199;-86
2023/05/20 07:37:42;;;;;;;4.93;3.43;;;;;;;;;;5013329;28;20191;-86
2023/05/20 07:40:11;;;;;;;3.60;3.30;;;;;;;;;;5013655;28;20223;-86
2023/05/20 07:42:40;;;;;;;4.17;2.67;;;;;;;;;;5013634;28;20207;-86
2023/05/20 07:45:09;;;;;;;3.73;2.70;;;;;;;;;;5013190;28;20237;-86
2023/05/20 07:47:38;;;;;;;1.63;1.53;;;;;;;;;;5012743;28;20249;-86
2023/05/20 07:50:08;;;;;;;3.60;2.30;;;;;;;;;;5013387;28;20210;-86
2023/05/20 07:52:36;;;;;;;5.10;2.23;;;;;;;;;;5013459;28;20209;-86
2023/05/20 07:55:22;;;;;;;2.70;2.50;;;;;;;;;;5013204;28;20217;-86
2023/05/20 07:57:52;;;;;;;2.90;2.13;;;;;;;;;;5013523;28;20230;-86
2023/05/20 08:00:21;;;;;;;1.00;1.00;;;;;;;;;;5013089;28;20203;-86
2023/05/20 08:02:50;;;;;;;1.43;1.33;;;;;;;;;;5012701;28;20198;-86
2023/05/20 08:05:19;;;;;;;2.77;2.27;;;;;;;;;;5012494;28;20197;-86
2023/05/20 08:07:47;;;;;;;2.10;1.67;;;;;;;;;;5012754;28;20253;-86
2023/05/20 08:10:15;;;;;;;5.57;1.90;;;;;;;;;;5012332;28;20212;-86
2023/05/20 08:12:44;;;;;;;3.07;2.53;;;;;;;;;;5012449;28;20201;-86
2023/05/20 08:15:14;;;;;;;3.37;2.80;;;;;;;;;;5012681;28;20199;-86
2023/05/20 08:17:43;;;;;;;2.47;1.93;;;;;;;;;;5012599;28;20195;-86
2023/05/20 08:20:12;;;;;;;4.13;2.47;;;;;;;;;;5012954;28;20293;-86
2023/05/20 08:22:41;;;;;;;3.17;2.10;;;;;;;;;;5012221;28;20231;-86
2023/05/20 08:25:10;;;;;;;2.33;1.83;;;;;;;;;;5012923;28;20205;-86
2023/05/20 08:27:38;;;;;;;2.23;1.70;;;;;;;;;;5012261;28;20388;-86
2023/05/20 08:30:08;;;;;;;3.40;1.77;;;;;;;;;;5012509;28;20207;-86
2023/05/20 08:32:38;;;;;;;4.37;3.13;;;;;;;;;;5012405;28;20202;-86
2023/05/20 08:35:08;;;;;;;2.70;2.60;;;;;;;;;;5012031;28;20205;-86
2023/05/20 08:37:36;;;;;;;4.83;2.77;;;;;;;;;;5012836;28;20211;-86
2023/05/20 08:40:05;;;;;;;1.80;1.70;;;;;;;;;;5012200;28;20251;-86
2023/05/20 08:42:33;;;;;;;4.27;2.43;;;;;;;;;;5011713;28;20199;-85
2023/05/20 08:45:02;;;;;;;3.67;2.13;;;;;;;;;;5014912;28;20207;-87
2023/05/20 08:47:31;;;;;;;3.40;2.73;;;;;;;;;;5016286;28;20208;-86
2023/05/20 08:50:02;;;;;;;2.27;1.33;;;;;;;;;;5016485;28;20203;-86
2023/05/20 08:52:32;;;;;;;3.10;2.40;;;;;;;;;;5016332;28;20254;-85
2023/05/20 08:55:01;;;;;;;2.00;1.90;;;;;;;;;;5016079;28;20253;-86
2023/05/20 08:57:32;;;;;;;2.07;1.97;;;;;;;;;;5013783;28;20217;-86
2023/05/20 09:00:06;;;;;;;2.27;2.07;;;;;;;;;;5015053;28;20226;-85
2023/05/20 09:02:37;;;;;;;3.67;3.17;;;;;;;;;;5009463;28;20208;-80
2023/05/20 09:05:08;;;;;;;4.37;3.73;;;;;;;;;;5007491;28;20338;-80
2023/05/20 09:07:37;;;;;;;5.43;4.00;;;;;;;;;;5006415;28;20219;-80
2023/05/20 09:10:07;;;;;;;3.83;3.53;;;;;;;;;;5003633;28;20216;-80
2023/05/20 09:12:35;;;;;;;3.23;2.60;;;;;;;;;;5004036;28;20207;-80
2023/05/20 09:15:05;;;;;;;5.03;3.17;;;;;;;;;;5005839;28;20203;-80
2023/05/20 09:17:35;;;;;;;4.47;3.60;;;;;;;;;;5007471;28;20207;-80
2023/05/20 09:20:09;;;;;;;4.23;3.07;;;;;;;;;;5002317;28;20215;-80
2023/05/20 09:22:39;;;;;;;3.70;3.00;;;;;;;;;;5008805;28;20229;-80
2023/05/20 09:25:08;;;;;;;4.63;3.10;;;;;;;;;;5013724;28;20295;-80
2023/05/20 09:27:36;;;;;;;4.20;3.33;;;;;;;;;;5012148;28;20234;-80
2023/05/20 09:30:11;;;;;;;6.23;4.00;;;;;;;;;;5011997;28;20229;-80
2023/05/20 09:32:40;;;;;;;5.57;3.83;;;;;;;;;;5011685;28;20261;-80
2023/05/20 09:35:14;;;;;;;5.80;3.20;;;;;;;;;;5008118;28;20245;-80
2023/05/20 09:37:43;;;;;;;6.03;3.17;;;;;;;;;;5010060;28;20201;-80
2023/05/20 09:40:14;;;;;;;4.10;3.57;;;;;;;;;;5004769;28;20203;-80
2023/05/20 09:42:45;;;;;;;5.83;3.23;;;;;;;;;;5008377;28;20212;-80
2023/05/20 09:45:15;;;;;;;2.70;2.50;;;;;;;;;;5007205;28;20218;-80
2023/05/20 09:47:44;;;;;;;7.73;3.70;;;;;;;;;;5005913;28;20250;-80
2023/05/20 09:50:14;;;;;;;4.07;2.97;;;;;;;;;;5010422;28;20216;-80
2023/05/20 09:52:44;;;;;;;7.10;2.90;;;;;;;;;;5005708;28;20204;-80
2023/05/20 09:55:13;;;;;;;4.90;3.03;;;;;;;;;;5006381;28;20280;-80
2023/05/20 09:57:42;;;;;;;4.40;3.10;;;;;;;;;;5009658;28;20196;-80
2023/05/20 10:00:12;;;;;;;3.63;3.00;;;;;;;;;;5011499;28;20209;-80
2023/05/20 10:02:42;;;;;;;4.33;3.00;;;;;;;;;;5004694;28;20211;-80
2023/05/20 10:05:13;;;;;;;4.00;3.20;;;;;;;;;;5008232;28;20537;-80
2023/05/20 10:07:50;;;;;;;5.10;2.90;;;;;;;;;;5008071;28;20208;-80
2023/05/20 10:10:27;;;;;;;3.00;2.80;;;;;;;;;;5010025;28;20223;-80
2023/05/20 10:12:59;;;;;;;6.07;2.47;;;;;;;;;;5004652;28;20212;-81
2023/05/20 10:15:31;;;;;;;4.03;2.67;;;;;;;;;;5011097;28;20197;-81
2023/05/20 10:18:04;;;;;;;2.67;2.37;;;;;;;;;;5011188;28;20213;-81
2023/05/20 10:20:33;;;;;;;4.50;2.77;;;;;;;;;;5007563;28;20218;-81
2023/05/20 10:23:04;;;;;;;3.20;2.40;;;;;;;;;;5007189;28;20291;-81
2023/05/20 10:25:32;;;;;;;1.70;1.60;;;;;;;;;;5008917;28;20219;-81
2023/05/20 10:28:06;;;;;;;1.40;1.17;;;;;;;;;;5009498;28;20229;-81
2023/05/20 10:30:35;;;;;;;5.47;2.80;;;;;;;;;;5010858;28;20216;-84
2023/05/20 10:33:06;;;;;;;3.00;2.60;;;;;;;;;;5002008;28;20207;-87
2023/05/20 10:35:35;;;;;;;3.20;2.40;;;;;;;;;;5008157;28;20204;-82
2023/05/20 10:38:12;;;;;;;2.63;1.97;;;;;;;;;;5010987;28;20207;-82
2023/05/20 10:40:40;;;;;;;3.10;2.00;;;;;;;;;;5008076;28;20204;-82
2023/05/20 10:43:10;;;;;;;6.50;2.53;;;;;;;;;;5011767;28;20207;-86
2023/05/20 10:45:49;;;;;;;3.47;1.97;;;;;;;;;;5006523;28;20212;-83
2023/05/20 10:48:21;;;;;;;1.07;0.97;;;;;;;;;;5012687;28;20214;-80
2023/05/20 10:50:50;;;;;;;1.57;1.40;;;;;;;;;;5013535;28;20216;-80
2023/05/20 10:53:22;;;;;;;1.73;1.57;;;;;;;;;;5007566;28;20210;-80
2023/05/20 10:56:01;;;;;;;1.53;1.23;;;;;;;;;;5004485;28;20212;-80
2023/05/20 10:58:37;;;;;;;1.93;1.50;;;;;;;;;;5014003;28;20227;-80
2023/05/20 11:01:06;;;;;;;2.63;1.93;;;;;;;;;;5014549;28;20213;-80
2023/05/20 11:03:35;;;;;;;3.53;2.03;;;;;;;;;;5012971;28;20204;-79
2023/05/20 11:06:11;;;;;;;2.07;1.87;;;;;;;;;;5013769;28;20205;-80
2023/05/20 11:08:41;;;;;;;3.20;2.60;;;;;;;;;;5013855;28;20212;-80
2023/05/20 11:11:09;;;;;;;2.53;2.07;;;;;;;;;;4994832;28;20209;-79
2023/05/20 11:13:38;;;;;;;3.73;1.83;;;;;;;;;;5005336;28;20205;-78
2023/05/20 11:16:06;;;;;;;4.20;1.73;;;;;;;;;;5014212;28;20259;-79
2023/05/20 11:18:35;;;;;;;2.27;1.90;;;;;;;;;;5014004;28;20201;-79
2023/05/20 11:21:03;;;;;;;3.23;1.87;;;;;;;;;;5013905;28;20205;-79
2023/05/20 11:23:32;;;;;;;3.70;2.00;;;;;;;;;;5013657;28;20232;-79
2023/05/20 11:26:02;;;;;;;1.87;1.77;;;;;;;;;;5014352;28;20225;-79
2023/05/20 11:28:32;;;;;;;2.07;1.13;;;;;;;;;;5011383;28;20229;-79
2023/05/20 11:31:00;;;;;;;1.20;1.10;;;;;;;;;;5013862;28;20327;-79
2023/05/20 11:33:30;;;;;;;1.73;1.63;;;;;;;;;;5013289;28;20202;-79
2023/05/20 11:35:59;;;;;;;4.80;2.40;;;;;;;;;;5013922;28;20204;-79
2023/05/20 11:38:27;;;;;;;3.50;1.73;;;;;;;;;;5011397;28;20297;-80
2023/05/20 11:40:56;;;;;;;1.63;1.53;;;;;;;;;;5013703;28;20201;-79
2023/05/20 11:43:26;;;;;;;1.97;1.50;;;;;;;;;;5020652;28;20218;-80
2023/05/20 11:45:58;;;;;;;2.07;1.80;;;;;;;;;;5018057;28;20209;-79
2023/05/20 11:48:26;;;;;;;2.00;1.43;;;;;;;;;;5013208;28;20224;-80
2023/05/20 11:50:56;;;;;;;1.43;1.33;;;;;;;;;;5010203;28;20227;-80
2023/05/20 11:53:27;;;;;;;3.00;1.97;;;;;;;;;;5013363;28;20217;-80
2023/05/20 11:55:56;;;;;;;3.90;1.80;;;;;;;;;;5013355;28;20233;-80
2023/05/20 11:58:25;;;;;;;1.17;1.13;;;;;;;;;;5012496;28;20217;-80
2023/05/20 12:00:55;;;;;;;1.70;1.60;;;;;;;;;;5023525;28;20226;-80
2023/05/20 12:03:41;;;;;;;2.90;1.50;;;;;;;;;;5033111;28;20205;-80
2023/05/20 12:06:12;;;;;;;1.67;1.43;;;;;;;;;;5031843;28;20207;-80
2023/05/20 12:08:41;;;;;;;2.40;1.37;;;;;;;;;;5013077;28;20220;-80
2023/05/20 12:11:09;;;;;;;2.90;2.60;;;;;;;;;;5012770;28;20281;-80
2023/05/20 12:13:38;;;;;;;3.43;2.87;;;;;;;;;;5012922;28;20205;-80
2023/05/20 12:16:08;;;;;;;2.90;2.33;;;;;;;;;;5013395;28;20263;-80
2023/05/20 12:18:36;;;;;;;4.10;3.00;;;;;;;;;;5013296;28;20212;-81
2023/05/20 12:21:07;;;;;;;4.13;2.43;;;;;;;;;;5013219;28;20202;-80
2023/05/20 12:23:35;;;;;;;4.50;2.77;;;;;;;;;;5012915;28;20245;-80
2023/05/20 12:26:04;;;;;;;3.73;2.63;;;;;;;;;;5013499;28;20198;-80
2023/05/20 12:28:33;;;;;;;6.00;2.83;;;;;;;;;;5011111;28;20225;-79
2023/05/20 12:31:01;;;;;;;3.50;1.80;;;;;;;;;;5012796;28;20224;-80
2023/05/20 12:33:31;;;;;;;5.50;2.80;;;;;;;;;;5011538;28;20219;-80
2023/05/20 12:36:00;;;;;;;4.07;2.50;;;;;;;;;;5015021;28;20210;-79
2023/05/20 12:38:28;;;;;;;2.23;2.03;;;;;;;;;;5011301;28;20201;-79
2023/05/20 12:40:57;;;;;;;3.33;3.03;;;;;;;;;;5011694;28;20204;-79
2023/05/20 12:43:25;;;;;;;5.00;3.33;;;;;;;;;;5011721;28;20213;-80
2023/05/20 12:45:54;;;;;;;2.83;1.90;;;;;;;;;;5011317;28;20209;-80
2023/05/20 12:48:23;;;;;;;3.27;1.60;;;;;;;;;;5010851;28;20196;-80
2023/05/20 12:50:52;;;;;;;3.07;2.37;;;;;;;;;;5010463;28;20213;-80
2023/05/20 12:53:21;;;;;;;1.27;1.10;;;;;;;;;;5020186;28;20219;-80
2023/05/20 12:55:49;;;;;;;4.27;2.00;;;;;;;;;;5010912;28;20244;-80
2023/05/20 12:58:18;;;;;;;1.53;1.43;;;;;;;;;;5011374;28;20210;-80
2023/05/20 13:00:46;;;;;;;1.60;1.50;;;;;;;;;;4997562;28;20195;-80
2023/05/20 13:03:14;;;;;;;3.47;2.63;;;;;;;;;;5010664;28;20214;-79
2023/05/20 13:05:43;;;;;;;5.07;3.03;;;;;;;;;;5011123;28;20236;-79
2023/05/20 13:08:13;;;;;;;1.53;1.27;;;;;;;;;;5014287;28;20258;-79
2023/05/20 13:10:42;;;;;;;2.20;2.00;;;;;;;;;;5010885;28;20253;-79
2023/05/20 13:13:12;;;;;;;1.90;1.77;;;;;;;;;;5011172;28;20200;-79
2023/05/20 13:15:40;;;;;;;6.67;2.70;;;;;;;;;;5011359;28;20211;-78
2023/05/20 13:18:09;;;;;;;3.80;2.73;;;;;;;;;;5010901;28;20215;-79
2023/05/20 13:20:38;;;;;;;2.93;1.33;;;;;;;;;;5010477;28;20259;-79
2023/05/20 13:23:06;;;;;;;1.07;1.00;;;;;;;;;;5011330;28;20228;-79
2023/05/20 13:25:36;;;;;;;3.10;2.10;;;;;;;;;;5011415;28;20201;-79
2023/05/20 13:28:06;;;;;;;3.00;2.60;;;;;;;;;;5010589;28;20239;-79
2023/05/20 13:30:34;;;;;;;6.60;3.57;;;;;;;;;;5011471;28;20256;-79
2023/05/20 13:33:04;;;;;;;3.33;2.83;;;;;;;;;;5015194;28;20223;-79
2023/05/20 13:35:32;;;;;;;6.03;3.07;;;;;;;;;;5015616;28;20225;-79
2023/05/20 13:38:01;;;;;;;5.13;2.97;;;;;;;;;;4996633;28;20215;-79
2023/05/20 13:40:29;;;;;;;3.23;2.87;;;;;;;;;;5015998;28;20200;-79
2023/05/20 13:42:59;;;;;;;4.07;2.93;;;;;;;;;;5015711;28;20192;-80
2023/05/20 13:45:28;;;;;;;4.50;3.23;;;;;;;;;;5016064;28;20204;-80
2023/05/20 13:47:56;;;;;;;4.80;2.63;;;;;;;;;;4998670;28;20274;-80
2023/05/20 13:50:26;;;;;;;3.30;2.70;;;;;;;;;;5012502;28;20236;-80
2023/05/20 13:52:54;;;;;;;3.47;2.77;;;;;;;;;;5001015;28;20227;-80
2023/05/20 13:55:23;;;;;;;3.70;2.67;;;;;;;;;;5015760;28;20200;-80
2023/05/20 13:57:53;;;;;;;6.03;3.13;;;;;;;;;;5015906;28;20216;-80
2023/05/20 14:00:22;;;;;;;3.53;2.23;;;;;;;;;;5029442;28;20206;-79
2023/05/20 14:02:52;;;;;;;3.23;2.67;;;;;;;;;;5025180;28;20273;-80
2023/05/20 14:05:21;;;;;;;2.97;2.50;;;;;;;;;;5015640;28;20199;-80
2023/05/20 14:07:50;;;;;;;4.47;2.93;;;;;;;;;;5015167;28;20223;-80
2023/05/20 14:10:18;;;;;;;4.03;3.07;;;;;;;;;;5015233;28;20208;-79
2023/05/20 14:12:47;;;;;;;4.77;3.17;;;;;;;;;;5015342;28;20207;-79
2023/05/20 14:15:16;;;;;;;3.83;2.23;;;;;;;;;;5015233;28;20210;-79
2023/05/20 14:17:45;;;;;;;3.33;1.47;;;;;;;;;;5015657;28;20212;-85
2023/05/20 14:20:17;;;;;;;11.20;2.90;;;;;;;;;;5015555;28;20255;-85
2023/05/20 14:22:45;;;;;;;3.07;1.93;;;;;;;;;;5008155;28;20240;-85
2023/05/20 14:25:17;;;;;;;4.03;2.70;;;;;;;;;;5008557;28;20216;-85
2023/05/20 14:27:48;;;;;;;3.50;2.47;;;;;;;;;;5013693;28;20281;-85
2023/05/20 14:30:17;;;;;;;6.13;2.80;;;;;;;;;;5014707;28;20217;-85
2023/05/20 14:32:47;;;;;;;2.10;1.90;;;;;;;;;;5013879;28;20217;-86
2023/05/20 14:35:17;;;;;;;3.63;2.00;;;;;;;;;;5013579;28;20235;-86
2023/05/20 14:37:45;;;;;;;2.60;1.80;;;;;;;;;;5014594;28;20203;-85
2023/05/20 14:40:14;;;;;;;2.13;2.03;;;;;;;;;;5012932;28;20216;-86
2023/05/20 14:42:42;;;;;;;2.87;2.20;;;;;;;;;;5013323;28;20189;-86
2023/05/20 14:45:11;;;;;;;3.13;2.17;;;;;;;;;;5013235;28;20196;-86
2023/05/20 14:47:40;;;;;;;2.53;1.63;;;;;;;;;;5014553;28;20207;-86
2023/05/20 14:50:10;;;;;;;2.13;1.40;;;;;;;;;;5013888;28;20189;-85
2023/05/20 14:52:38;;;;;;;5.77;2.37;;;;;;;;;;5014139;28;20225;-85
2023/05/20 14:55:07;;;;;;;3.23;2.53;;;;;;;;;;5014853;28;20211;-85